This is the latest recevied weather packets stored in our database for station/object W7BTL. If no packets are shown the sender has not sent any weather packets the latest 10 day(s).
| Time | Temp. | Humidity | Pressure | Rain* | Wind** | Luminosity | Snow |
|---|---|---|---|---|---|---|---|
| 1788466474 | 29.44° C | 48% | 1012.6 hPa | 0 mm | - | 981 W/m² | - |
| 1788466173 | 30° C | 46% | 1012.7 hPa | 0 mm | - | 986 W/m² | - |
| 1788465868 | 29.44° C | 48% | 1012.8 hPa | 0 mm | - | 980 W/m² | - |
| 1788465563 | 29.44° C | 47% | 1012.6 hPa | 0 mm | - | 984 W/m² | - |
| 1788465260 | 28.89° C | 49% | 1012.7 hPa | 0 mm | - | 987 W/m² | - |
| 1788464954 | 28.89° C | 47% | 1012.8 hPa | 0 mm | - | 984 W/m² | - |
| 1788464650 | 29.44° C | 44% | 1012.9 hPa | 0 mm | - | 991 W/m² | - |
| 1788464345 | 28.33° C | 50% | 1013 hPa | 0 mm | - | 890 W/m² | - |
| 1788464042 | 27.78° C | 48% | 1013.1 hPa | 0 mm | - | 987 W/m² | - |
| 1788463736 | 27.78° C | 51% | 1013.2 hPa | 0 mm | - | 976 W/m² | - |
| 1788463432 | 27.78° C | 48% | 1013.2 hPa | 0 mm | - | 978 W/m² | - |
| 1788463129 | 28.33° C | 48% | 1013.3 hPa | 0 mm | - | 968 W/m² | - |
| 1788462824 | 27.78° C | 51% | 1013.5 hPa | 0 mm | - | 969 W/m² | - |
| 1788462523 | 28.33° C | 48% | 1013.3 hPa | 0 mm | - | 963 W/m² | - |
| 1788462218 | 27.78° C | 52% | 1013.4 hPa | 0 mm | - | 961 W/m² | - |
| 1788461917 | 27.78° C | 51% | 1013.6 hPa | 0 mm | - | 960 W/m² | - |
| 1788461613 | 28.33° C | 51% | 1013.7 hPa | 0 mm | - | 967 W/m² | - |
| 1788461309 | 27.78° C | 53% | 1013.7 hPa | 0 mm | - | 960 W/m² | - |
| 1788461006 | 27.22° C | 52% | 1013.8 hPa | 0 mm | - | 319 W/m² | - |
| 1788460705 | 27.22° C | 53% | 1014 hPa | 0 mm | - | 953 W/m² | - |
| 1788460400 | 27.78° C | 52% | 1014 hPa | 0 mm | - | 574 W/m² | - |
| 1788460100 | 27.78° C | 53% | 1014 hPa | 0 mm | - | 753 W/m² | - |
| 1788459800 | 27.22° C | 54% | 1014.1 hPa | 0 mm | - | 942 W/m² | - |
| 1788459500 | 27.22° C | 53% | 1014.1 hPa | 0 mm | - | 983 W/m² | - |
| 1788459194 | 27.78° C | 50% | 1014.1 hPa | 0 mm | - | 219 W/m² | - |
* Rain latest hour (hover to see other rain measurements)
** Current wind speed in m/s (hover to see current wind gust speed)